sensor_id;sensor_type;location;lat;lon;timestamp;temperature;humidity
43862;DHT22;29510;52.140;5.034;2023-02-19T00:01:36;9.90;99.90
43862;DHT22;29510;52.140;5.034;2023-02-19T00:11:38;9.90;99.90
43862;DHT22;29510;52.140;5.034;2023-02-19T00:21:40;9.90;99.90
43862;DHT22;29510;52.140;5.034;2023-02-19T00:31:41;9.80;99.90
43862;DHT22;29510;52.140;5.034;2023-02-19T00:41:43;9.90;99.90
43862;DHT22;29510;52.140;5.034;2023-02-19T00:51:45;9.90;99.90
43862;DHT22;29510;52.140;5.034;2023-02-19T01:01:47;10.00;99.90
43862;DHT22;29510;52.140;5.034;2023-02-19T01:11:49;10.00;99.90
43862;DHT22;29510;52.140;5.034;2023-02-19T01:21:50;10.10;99.90
43862;DHT22;29510;52.140;5.034;2023-02-19T01:31:51;9.90;99.90
43862;DHT22;29510;52.140;5.034;2023-02-19T01:41:52;9.90;99.90
43862;DHT22;29510;52.140;5.034;2023-02-19T02:02:00;9.70;99.90
43862;DHT22;29510;52.140;5.034;2023-02-19T02:12:01;9.70;99.90
43862;DHT22;29510;52.140;5.034;2023-02-19T02:22:06;9.60;99.90
43862;DHT22;29510;52.140;5.034;2023-02-19T02:32:14;9.70;99.90
43862;DHT22;29510;52.140;5.034;2023-02-19T02:42:15;9.70;99.90
43862;DHT22;29510;52.140;5.034;2023-02-19T02:52:28;9.70;99.90
43862;DHT22;29510;52.140;5.034;2023-02-19T03:02:49;9.70;99.90
43862;DHT22;29510;52.140;5.034;2023-02-19T03:12:52;9.80;99.90
43862;DHT22;29510;52.140;5.034;2023-02-19T03:23:14;9.70;99.90
43862;DHT22;29510;52.140;5.034;2023-02-19T03:43:41;9.50;99.90
43862;DHT22;29510;52.140;5.034;2023-02-19T04:14:38;9.60;99.90
43862;DHT22;29510;52.140;5.034;2023-02-19T04:24:45;9.60;99.90
43862;DHT22;29510;52.140;5.034;2023-02-19T04:34:47;9.60;99.90
43862;DHT22;29510;52.140;5.034;2023-02-19T04:44:48;9.50;99.90
43862;DHT22;29510;52.140;5.034;2023-02-19T04:54:50;9.50;99.90
43862;DHT22;29510;52.140;5.034;2023-02-19T05:04:51;9.50;99.90
43862;DHT22;29510;52.140;5.034;2023-02-19T05:14:52;9.60;99.90
43862;DHT22;29510;52.140;5.034;2023-02-19T05:24:53;9.70;99.90
43862;DHT22;29510;52.140;5.034;2023-02-19T05:34:54;9.70;99.90
43862;DHT22;29510;52.140;5.034;2023-02-19T05:44:55;9.70;99.90
43862;DHT22;29510;52.140;5.034;2023-02-19T05:54:56;9.60;99.90
43862;DHT22;29510;52.140;5.034;2023-02-19T06:04:57;9.60;99.90
43862;DHT22;29510;52.140;5.034;2023-02-19T06:14:58;9.50;99.90
43862;DHT22;29510;52.140;5.034;2023-02-19T06:24:59;9.60;99.90
43862;DHT22;29510;52.140;5.034;2023-02-19T06:35:00;9.30;99.90
43862;DHT22;29510;52.140;5.034;2023-02-19T06:45:02;9.30;99.90
43862;DHT22;29510;52.140;5.034;2023-02-19T06:55:03;9.20;99.90
43862;DHT22;29510;52.140;5.034;2023-02-19T07:05:04;9.30;99.90
43862;DHT22;29510;52.140;5.034;2023-02-19T07:15:05;9.30;99.90
43862;DHT22;29510;52.140;5.034;2023-02-19T07:25:07;9.20;99.90
43862;DHT22;29510;52.140;5.034;2023-02-19T07:35:08;9.10;99.90
43862;DHT22;29510;52.140;5.034;2023-02-19T07:45:09;9.10;99.90
43862;DHT22;29510;52.140;5.034;2023-02-19T07:55:10;9.10;99.90
43862;DHT22;29510;52.140;5.034;2023-02-19T08:05:11;9.10;99.90
43862;DHT22;29510;52.140;5.034;2023-02-19T08:15:13;9.10;99.90
43862;DHT22;29510;52.140;5.034;2023-02-19T08:25:14;9.10;99.90
43862;DHT22;29510;52.140;5.034;2023-02-19T08:35:15;9.20;99.90
43862;DHT22;29510;52.140;5.034;2023-02-19T08:45:16;9.10;99.90
43862;DHT22;29510;52.140;5.034;2023-02-19T08:55:18;9.20;99.90
43862;DHT22;29510;52.140;5.034;2023-02-19T09:05:19;9.30;99.90
43862;DHT22;29510;52.140;5.034;2023-02-19T09:15:20;9.20;99.90
43862;DHT22;29510;52.140;5.034;2023-02-19T09:25:21;9.50;99.90
43862;DHT22;29510;52.140;5.034;2023-02-19T09:35:22;9.40;99.90
43862;DHT22;29510;52.140;5.034;2023-02-19T09:45:24;9.50;99.90
43862;DHT22;29510;52.140;5.034;2023-02-19T09:55:33;9.50;99.90
43862;DHT22;29510;52.140;5.034;2023-02-19T10:05:37;9.60;99.90
43862;DHT22;29510;52.140;5.034;2023-02-19T10:25:53;9.60;99.90
43862;DHT22;29510;52.140;5.034;2023-02-19T10:36:05;9.60;99.90
43862;DHT22;29510;52.140;5.034;2023-02-19T10:46:19;9.60;99.90
43862;DHT22;29510;52.140;5.034;2023-02-19T10:56:26;9.50;99.90
43862;DHT22;29510;52.140;5.034;2023-02-19T11:06:29;9.50;99.90
43862;DHT22;29510;52.140;5.034;2023-02-19T11:16:57;9.10;99.90
43862;DHT22;29510;52.140;5.034;2023-02-19T11:27:05;8.60;99.90
43862;DHT22;29510;52.140;5.034;2023-02-19T11:57:52;8.40;99.90
43862;DHT22;29510;52.140;5.034;2023-02-19T12:29:03;8.50;99.90
43862;DHT22;29510;52.140;5.034;2023-02-19T13:10:35;8.10;99.90
43862;DHT22;29510;52.140;5.034;2023-02-19T13:20:41;8.00;99.90
43862;DHT22;29510;52.140;5.034;2023-02-19T13:41:05;8.00;99.90
43862;DHT22;29510;52.140;5.034;2023-02-19T14:21:50;7.70;99.90
43862;DHT22;29510;52.140;5.034;2023-02-19T14:31:51;7.60;99.90
43862;DHT22;29510;52.140;5.034;2023-02-19T14:42:03;7.50;99.90
43862;DHT22;29510;52.140;5.034;2023-02-19T14:52:09;7.50;99.90
43862;DHT22;29510;52.140;5.034;2023-02-19T15:02:13;7.50;99.90
43862;DHT22;29510;52.140;5.034;2023-02-19T15:12:21;7.60;99.90
43862;DHT22;29510;52.140;5.034;2023-02-19T15:22:24;7.50;99.90
43862;DHT22;29510;52.140;5.034;2023-02-19T15:32:28;7.40;99.90
43862;DHT22;29510;52.140;5.034;2023-02-19T15:42:31;7.50;99.90
43862;DHT22;29510;52.140;5.034;2023-02-19T15:52:35;7.40;99.90
43862;DHT22;29510;52.140;5.034;2023-02-19T16:02:39;7.40;99.90
43862;DHT22;29510;52.140;5.034;2023-02-19T16:12:40;7.40;99.90
43862;DHT22;29510;52.140;5.034;2023-02-19T16:22:41;7.50;99.90
43862;DHT22;29510;52.140;5.034;2023-02-19T16:32:42;7.50;99.90
43862;DHT22;29510;52.140;5.034;2023-02-19T16:52:53;7.40;72.60
43862;DHT22;29510;52.140;5.034;2023-02-19T17:02:57;7.40;80.60
43862;DHT22;29510;52.140;5.034;2023-02-19T17:12:58;7.30;79.60
43862;DHT22;29510;52.140;5.034;2023-02-19T17:22:59;7.30;76.00
43862;DHT22;29510;52.140;5.034;2023-02-19T17:33:01;7.30;69.60
43862;DHT22;29510;52.140;5.034;2023-02-19T17:43:02;7.20;61.90
43862;DHT22;29510;52.140;5.034;2023-02-19T17:53:03;7.20;52.10
43862;DHT22;29510;52.140;5.034;2023-02-19T18:03:04;7.10;59.90
43862;DHT22;29510;52.140;5.034;2023-02-19T18:13:07;7.10;63.20
43862;DHT22;29510;52.140;5.034;2023-02-19T18:23:10;7.00;74.60
43862;DHT22;29510;52.140;5.034;2023-02-19T18:33:11;6.90;86.40
43862;DHT22;29510;52.140;5.034;2023-02-19T18:43:13;6.70;91.70
43862;DHT22;29510;52.140;5.034;2023-02-19T18:53:14;6.60;99.90
43862;DHT22;29510;52.140;5.034;2023-02-19T19:03:15;6.50;99.90
43862;DHT22;29510;52.140;5.034;2023-02-19T19:13:16;6.50;99.90
43862;DHT22;29510;52.140;5.034;2023-02-19T19:23:17;6.30;99.90
43862;DHT22;29510;52.140;5.034;2023-02-19T19:33:18;6.30;99.90
43862;DHT22;29510;52.140;5.034;2023-02-19T19:43:19;6.20;99.90
43862;DHT22;29510;52.140;5.034;2023-02-19T19:53:20;6.20;99.90
43862;DHT22;29510;52.140;5.034;2023-02-19T20:03:21;6.10;99.90
43862;DHT22;29510;52.140;5.034;2023-02-19T20:13:22;6.00;99.90
43862;DHT22;29510;52.140;5.034;2023-02-19T20:23:26;6.00;99.90
43862;DHT22;29510;52.140;5.034;2023-02-19T20:33:27;6.00;99.90
43862;DHT22;29510;52.140;5.034;2023-02-19T20:43:28;5.90;99.90
43862;DHT22;29510;52.140;5.034;2023-02-19T20:53:29;5.80;99.90
43862;DHT22;29510;52.140;5.034;2023-02-19T21:03:31;5.90;99.90
43862;DHT22;29510;52.140;5.034;2023-02-19T21:13:32;5.80;99.90
43862;DHT22;29510;52.140;5.034;2023-02-19T21:23:35;5.80;99.90
43862;DHT22;29510;52.140;5.034;2023-02-19T21:33:36;5.80;99.90
43862;DHT22;29510;52.140;5.034;2023-02-19T21:43:37;5.80;99.90
43862;DHT22;29510;52.140;5.034;2023-02-19T21:53:38;5.80;99.90
43862;DHT22;29510;52.140;5.034;2023-02-19T22:03:39;5.80;99.90
43862;DHT22;29510;52.140;5.034;2023-02-19T22:13:40;5.80;99.90
43862;DHT22;29510;52.140;5.034;2023-02-19T22:23:45;5.80;99.90
43862;DHT22;29510;52.140;5.034;2023-02-19T22:33:47;5.80;99.90
43862;DHT22;29510;52.140;5.034;2023-02-19T22:43:48;5.80;99.90
43862;DHT22;29510;52.140;5.034;2023-02-19T22:53:52;5.70;99.90
43862;DHT22;29510;52.140;5.034;2023-02-19T23:03:55;5.80;99.90
43862;DHT22;29510;52.140;5.034;2023-02-19T23:13:57;5.80;99.90
43862;DHT22;29510;52.140;5.034;2023-02-19T23:23:58;5.90;99.90
43862;DHT22;29510;52.140;5.034;2023-02-19T23:33:59;5.90;99.90
43862;DHT22;29510;52.140;5.034;2023-02-19T23:44:00;6.00;99.90
43862;DHT22;29510;52.140;5.034;2023-02-19T23:54:01;6.10;99.90
